Time;durP1;ratioP1;P1;durP2;ratioP2;P2;SDS_P1;SDS_P2;PMS_P1;PMS_P2;Temp;Humidity;BMP_temperature;BMP_pressure;BME280_temperature;BME280_humidity;BME280_pressure;Samples;Min_cycle;Max_cycle;Signal;HPM_P1;HPM_P2
2023/12/28 00:01:42;;;;;;;;;;;;;;;22.02;36.86;100673.53;5035666;28;19917;-46
2023/12/28 00:04:07;;;;;;;;;;;;;;;22.02;37.18;100668.13;5020944;28;19918;-45
2023/12/28 00:06:33;;;;;;;;;;;;;;;21.96;37.20;100680.56;5029399;28;20283;-47
2023/12/28 00:09:00;;;;;;;;;;;;;;;21.94;37.23;100669.09;5020939;28;19914;-45
2023/12/28 00:11:25;;;;;;;;;;;;;;;21.96;37.32;100663.47;5021411;28;19918;-45
2023/12/28 00:13:50;;;;;;;;;;;;;;;21.94;37.19;100666.38;5022108;28;19923;-48
2023/12/28 00:16:15;;;;;;;;;;;;;;;21.93;37.27;100672.00;5028102;28;19914;-46
2023/12/28 00:18:41;;;;;;;;;;;;;;;21.92;37.09;100673.03;5017303;28;19947;-46
2023/12/28 00:21:06;;;;;;;;;;;;;;;21.91;37.41;100680.28;5030925;28;19937;-46
2023/12/28 00:23:31;;;;;;;;;;;;;;;21.89;37.18;100687.78;5065596;28;19914;-46
2023/12/28 00:25:56;;;;;;;;;;;;;;;21.89;37.23;100698.59;5009694;28;20436;-49
2023/12/28 00:28:21;;;;;;;;;;;;;;;21.88;37.28;100715.88;5029150;28;19918;-46
2023/12/28 00:30:47;;;;;;;;;;;;;;;21.87;37.26;100724.19;5027181;28;19927;-48
2023/12/28 00:33:12;;;;;;;;;;;;;;;21.84;37.21;100722.72;5076561;28;19918;-45
2023/12/28 00:35:37;;;;;;;;;;;;;;;21.82;37.37;100724.75;5022646;28;19997;-50
2023/12/28 00:38:02;;;;;;;;;;;;;;;21.81;37.48;100727.66;5022175;28;20309;-48
2023/12/28 00:40:27;;;;;;;;;;;;;;;21.79;37.35;100729.72;5032787;28;19914;-49
2023/12/28 00:42:53;;;;;;;;;;;;;;;21.77;37.34;100734.50;5038238;28;19916;-50
2023/12/28 00:45:18;;;;;;;;;;;;;;;21.76;37.55;100732.81;5085878;28;20428;-48
2023/12/28 00:47:43;;;;;;;;;;;;;;;21.73;37.60;100734.03;5024744;28;20413;-49
2023/12/28 00:50:11;;;;;;;;;;;;;;;21.73;37.42;100735.91;5016229;28;19914;-46
2023/12/28 00:52:36;;;;;;;;;;;;;;;21.71;37.55;100730.69;5073003;28;19939;-47
2023/12/28 00:55:01;;;;;;;;;;;;;;;21.68;37.88;100734.59;5042192;28;19917;-47
2023/12/28 00:57:27;;;;;;;;;;;;;;;21.67;37.53;100737.53;5029379;28;19928;-48
2023/12/28 00:59:52;;;;;;;;;;;;;;;21.65;37.92;100739.56;5035229;28;20005;-48
2023/12/28 01:02:17;;;;;;;;;;;;;;;21.64;37.59;100740.59;5026277;28;19918;-47
2023/12/28 01:04:42;;;;;;;;;;;;;;;21.62;37.71;100737.22;5013834;28;19949;-46
2023/12/28 01:07:07;;;;;;;;;;;;;;;21.61;37.67;100739.09;5029408;28;19914;-47
2023/12/28 01:09:33;;;;;;;;;;;;;;;21.60;37.64;100733.88;5037859;28;19914;-48
2023/12/28 01:11:58;;;;;;;;;;;;;;;21.59;37.82;100737.63;5020028;28;19914;-48
2023/12/28 01:14:23;;;;;;;;;;;;;;;21.58;37.82;100741.34;5057660;28;19917;-45
2023/12/28 01:16:49;;;;;;;;;;;;;;;21.56;37.69;100732.59;5027857;28;19921;-44
2023/12/28 01:19:14;;;;;;;;;;;;;;;21.56;37.71;100735.31;5015955;28;19922;-48
2023/12/28 01:21:39;;;;;;;;;;;;;;;21.54;37.96;100737.38;5018327;28;19914;-47
2023/12/28 01:24:04;;;;;;;;;;;;;;;21.52;37.92;100737.53;5018629;28;19914;-46
2023/12/28 01:26:29;;;;;;;;;;;;;;;21.51;37.91;100741.28;5027328;28;19925;-45
2023/12/28 01:28:56;;;;;;;;;;;;;;;21.50;37.86;100744.19;5025200;28;19967;-46
2023/12/28 01:31:22;;;;;;;;;;;;;;;21.48;37.96;100743.53;5045932;28;20422;-44
2023/12/28 01:33:47;;;;;;;;;;;;;;;21.47;38.10;100758.91;5018517;28;19951;-46
2023/12/28 01:36:18;;;;;;;;;;;;;;;21.45;38.22;100758.25;5012658;28;19921;-45
2023/12/28 01:38:43;;;;;;;;;;;;;;;21.44;38.10;100757.41;5021926;28;19914;-45
2023/12/28 01:41:08;;;;;;;;;;;;;;;21.43;37.96;100760.31;5018176;28;19997;-46
2023/12/28 01:43:34;;;;;;;;;;;;;;;21.41;38.25;100763.22;5009505;28;19917;-45
2023/12/28 01:45:59;;;;;;;;;;;;;;;21.41;38.20;100774.03;5032060;28;19920;-44
2023/12/28 01:48:24;;;;;;;;;;;;;;;21.39;38.13;100776.09;5023227;28;19925;-45
2023/12/28 01:50:49;;;;;;;;;;;;;;;21.37;38.01;100775.44;5070729;28;19914;-47
2023/12/28 01:53:14;;;;;;;;;;;;;;;21.36;38.17;100772.91;5021949;28;19918;-45
2023/12/28 01:55:40;;;;;;;;;;;;;;;21.35;38.02;100774.78;5036025;28;19914;-45
2023/12/28 01:58:05;;;;;;;;;;;;;;;21.34;38.12;100781.22;5068971;28;19926;-45
2023/12/28 02:00:31;;;;;;;;;;;;;;;21.32;38.31;100771.59;5068020;28;19917;-47
2023/12/28 02:02:56;;;;;;;;;;;;;;;21.31;38.44;100784.25;5064455;28;19919;-49
2023/12/28 02:05:22;;;;;;;;;;;;;;;21.29;38.23;100778.22;5011929;28;19918;-50
2023/12/28 02:07:47;;;;;;;;;;;;;;;21.29;38.32;100771.97;5016802;28;20468;-48
2023/12/28 02:10:12;;;;;;;;;;;;;;;21.26;38.22;100773.19;5044699;28;19945;-49
2023/12/28 02:12:37;;;;;;;;;;;;;;;21.25;38.23;100759.84;5027106;28;19918;-48
2023/12/28 02:15:03;;;;;;;;;;;;;;;21.23;38.46;100765.44;5062677;28;20368;-48
2023/12/28 02:17:28;;;;;;;;;;;;;;;21.22;38.27;100753.78;5029474;28;19913;-46
2023/12/28 02:19:54;;;;;;;;;;;;;;;21.21;38.29;100752.09;5063794;28;19912;-50
2023/12/28 02:22:19;;;;;;;;;;;;;;;21.19;38.65;100751.44;5006768;28;19949;-47
2023/12/28 02:24:50;;;;;;;;;;;;;;;21.19;38.71;100754.16;5070580;28;19912;-49
2023/12/28 02:27:15;;;;;;;;;;;;;;;21.17;38.59;100756.22;5032087;28;19961;-49
2023/12/28 02:29:41;;;;;;;;;;;;;;;21.16;38.64;100759.94;5009983;28;19921;-50
2023/12/28 02:32:06;;;;;;;;;;;;;;;20.85;38.57;100708.75;5034412;28;19933;-48
2023/12/28 02:34:33;;;;;;;;;;;;;;;21.14;38.54;100751.16;5057430;28;20474;-46
2023/12/28 02:36:59;;;;;;;;;;;;;;;21.13;38.39;100754.91;5060465;28;19943;-49
2023/12/28 02:39:24;;;;;;;;;;;;;;;21.13;38.70;100748.66;5058499;28;19916;-48
2023/12/28 02:41:49;;;;;;;;;;;;;;;21.11;38.58;100748.00;5068312;28;19920;-50
2023/12/28 02:44:14;;;;;;;;;;;;;;;21.10;38.90;100743.63;5066433;28;19945;-48
2023/12/28 02:46:39;;;;;;;;;;;;;;;21.09;38.80;100745.50;5016274;28;19918;-50
2023/12/28 02:49:04;;;;;;;;;;;;;;;21.07;38.71;100746.69;5044033;28;20281;-47
2023/12/28 02:51:30;;;;;;;;;;;;;;;21.05;38.50;100741.47;5017776;28;19955;-49
2023/12/28 02:53:55;;;;;;;;;;;;;;;21.05;38.66;100736.06;5029803;28;19920;-47
2023/12/28 02:56:20;;;;;;;;;;;;;;;21.04;38.67;100738.97;5019248;28;20237;-49
2023/12/28 02:58:45;;;;;;;;;;;;;;;21.02;38.87;100738.31;5019766;28;19922;-51
2023/12/28 03:01:10;;;;;;;;;;;;;;;21.01;38.57;100739.34;5015791;28;19917;-49
2023/12/28 03:03:36;;;;;;;;;;;;;;;20.99;38.80;100726.03;5070781;28;19914;-50
2023/12/28 03:06:01;;;;;;;;;;;;;;;20.98;38.72;100732.44;5028664;28;20140;-46
2023/12/28 03:08:26;;;;;;;;;;;;;;;20.96;39.04;100720.97;5017667;28;19914;-48
2023/12/28 03:10:52;;;;;;;;;;;;;;;20.95;39.07;100730.13;5028586;28;19952;-45
2023/12/28 03:13:18;;;;;;;;;;;;;;;20.93;39.10;100724.88;5019063;28;19924;-48
2023/12/28 03:15:43;;;;;;;;;;;;;;;20.92;38.77;100741.31;5010496;28;19965;-49
2023/12/28 03:18:08;;;;;;;;;;;;;;;20.91;39.05;100748.56;5009507;28;19923;-49
2023/12/28 03:20:33;;;;;;;;;;;;;;;20.91;38.87;100731.53;5027644;28;20407;-48
2023/12/28 03:22:58;;;;;;;;;;;;;;;20.89;39.00;100739.78;5016706;28;19970;-48
2023/12/28 03:25:23;;;;;;;;;;;;;;;20.88;39.07;100735.44;5023275;28;19917;-46
2023/12/28 03:27:49;;;;;;;;;;;;;;;20.87;39.13;100730.22;5028199;28;19919;-50
2023/12/28 03:30:14;;;;;;;;;;;;;;;20.85;39.14;100738.50;5011462;28;19941;-48
2023/12/28 03:32:39;;;;;;;;;;;;;;;20.85;39.12;100734.94;5005710;28;19918;-47
2023/12/28 03:35:06;;;;;;;;;;;;;;;20.83;39.09;100743.25;5024179;28;19917;-49
2023/12/28 03:37:31;;;;;;;;;;;;;;;20.82;39.07;100736.19;5030403;28;19953;-46
2023/12/28 03:39:57;;;;;;;;;;;;;;;20.82;38.92;100746.16;5025956;28;19936;-49
2023/12/28 03:42:22;;;;;;;;;;;;;;;20.80;39.02;100742.78;5043143;28;19979;-50
2023/12/28 03:44:47;;;;;;;;;;;;;;;20.78;38.93;100745.69;5030763;28;20482;-49
2023/12/28 03:47:12;;;;;;;;;;;;;;;20.78;39.11;100742.13;5012950;28;19921;-49
2023/12/28 03:49:38;;;;;;;;;;;;;;;20.76;39.30;100742.31;5048472;28;19925;-49
2023/12/28 03:52:04;;;;;;;;;;;;;;;20.76;39.31;100738.78;5028332;28;20294;-48
2023/12/28 03:54:29;;;;;;;;;;;;;;;20.74;39.30;100738.97;5024366;28;19922;-49
2023/12/28 03:56:54;;;;;;;;;;;;;;;20.73;39.33;100745.41;5027934;28;19924;-48
2023/12/28 03:59:20;;;;;;;;;;;;;;;20.72;39.00;100735.59;5018060;28;19960;-47
2023/12/28 04:01:45;;;;;;;;;;;;;;;20.70;39.21;100735.78;5007899;28;19971;-50
2023/12/28 04:04:10;;;;;;;;;;;;;;;20.70;39.29;100734.94;5050992;28;19928;-46
2023/12/28 04:06:36;;;;;;;;;;;;;;;20.70;39.33;100729.56;5029717;28;19918;-49
2023/12/28 04:09:02;;;;;;;;;;;;;;;20.69;39.34;100744.94;5031421;28;19925;-50
2023/12/28 04:11:27;;;;;;;;;;;;;;;20.69;39.02;100733.28;5023377;28;19914;-50
2023/12/28 04:13:52;;;;;;;;;;;;;;;20.66;39.40;100737.19;5023535;28;19979;-46
2023/12/28 04:16:17;;;;;;;;;;;;;;;20.66;39.33;100753.38;5025345;28;19924;-49
2023/12/28 04:18:43;;;;;;;;;;;;;;;20.65;39.33;100737.38;5042228;28;19925;-49
2023/12/28 04:21:11;;;;;;;;;;;;;;;20.63;39.04;100729.44;5040607;28;20384;-50
2023/12/28 04:23:37;;;;;;;;;;;;;;;20.63;39.16;100731.31;5076821;28;19916;-49
2023/12/28 04:26:02;;;;;;;;;;;;;;;20.61;39.36;100719.84;5020154;28;19918;-46
2023/12/28 04:28:28;;;;;;;;;;;;;;;20.61;39.36;100720.69;5024932;28;19940;-47
2023/12/28 04:30:53;;;;;;;;;;;;;;;20.59;39.42;100717.31;5038235;28;19918;-47
2023/12/28 04:33:19;;;;;;;;;;;;;;;20.58;39.31;100723.75;5041667;28;19921;-49
2023/12/28 04:35:44;;;;;;;;;;;;;;;20.58;39.12;100721.06;5023165;28;19917;-48
2023/12/28 04:38:09;;;;;;;;;;;;;;;20.56;39.41;100723.13;5023184;28;19916;-49
2023/12/28 04:40:34;;;;;;;;;;;;;;;20.56;39.10;100714.16;5015636;28;19925;-48
2023/12/28 04:43:00;;;;;;;;;;;;;;;20.54;39.33;100717.03;5018438;28;20048;-45
2023/12/28 04:45:25;;;;;;;;;;;;;;;20.54;39.46;100727.00;5018004;28;19914;-49
2023/12/28 04:47:50;;;;;;;;;;;;;;;20.52;39.17;100716.41;5021826;28;20288;-48
2023/12/28 04:50:15;;;;;;;;;;;;;;;20.52;39.27;100727.19;5040886;28;19923;-49
2023/12/28 04:52:40;;;;;;;;;;;;;;;20.51;39.37;100735.47;5033715;28;19947;-48
2023/12/28 04:55:06;;;;;;;;;;;;;;;20.51;39.11;100735.47;5015511;28;19923;-49
2023/12/28 04:57:31;;;;;;;;;;;;;;;20.50;39.23;100717.59;5014297;28;19929;-47
2023/12/28 04:59:56;;;;;;;;;;;;;;;20.49;39.43;100730.25;5015310;28;20013;-48
2023/12/28 05:02:22;;;;;;;;;;;;;;;20.48;39.22;100734.00;5013761;28;20299;-47
2023/12/28 05:04:47;;;;;;;;;;;;;;;20.46;39.56;100736.00;5025827;28;19912;-49
2023/12/28 05:07:12;;;;;;;;;;;;;;;20.45;39.26;100723.50;5045238;28;19917;-45
2023/12/28 05:09:37;;;;;;;;;;;;;;;20.44;39.56;100721.84;5078433;28;20312;-48
2023/12/28 05:12:02;;;;;;;;;;;;;;;20.43;39.22;100734.50;5087148;28;19918;-47
2023/12/28 05:14:28;;;;;;;;;;;;;;;20.43;39.34;100736.34;5026434;28;19914;-47
2023/12/28 05:16:53;;;;;;;;;;;;;;;20.42;39.45;100735.50;5029114;28;19914;-47
2023/12/28 05:19:18;;;;;;;;;;;;;;;20.41;39.53;100723.03;5011474;28;19918;-46
2023/12/28 05:21:44;;;;;;;;;;;;;;;20.40;39.29;100732.16;5021503;28;19989;-45
2023/12/28 05:24:09;;;;;;;;;;;;;;;20.39;39.56;100733.19;5050574;28;19943;-45
2023/12/28 05:26:34;;;;;;;;;;;;;;;20.37;39.61;100737.94;5007880;28;20237;-47
2023/12/28 05:28:59;;;;;;;;;;;;;;;20.37;39.54;100737.94;5041977;28;19918;-47
2023/12/28 05:31:24;;;;;;;;;;;;;;;20.37;39.32;100729.81;5029160;28;19935;-44
2023/12/28 05:33:50;;;;;;;;;;;;;;;20.36;39.47;100743.53;5074515;28;19925;-45
2023/12/28 05:36:15;;;;;;;;;;;;;;;19.91;39.63;100672.34;5019342;28;19956;-45
2023/12/28 05:38:40;;;;;;;;;;;;;;;20.34;39.29;100756.34;5034428;28;19929;-44
2023/12/28 05:41:05;;;;;;;;;;;;;;;20.32;39.57;100737.63;5022069;28;19921;-45
2023/12/28 05:43:31;;;;;;;;;;;;;;;20.31;39.69;100749.47;5045018;28;19914;-44
2023/12/28 05:45:56;;;;;;;;;;;;;;;20.30;39.50;100736.97;5028859;28;19914;-46
2023/12/28 05:48:21;;;;;;;;;;;;;;;20.29;39.63;100738.00;5020494;28;19914;-44
2023/12/28 05:50:46;;;;;;;;;;;;;;;20.29;39.66;100747.97;5019298;28;19913;-45
2023/12/28 05:53:13;;;;;;;;;;;;;;;20.27;39.48;100756.25;5028201;28;19955;-48
2023/12/28 05:55:40;;;;;;;;;;;;;;;20.28;39.30;100746.28;5016928;28;19923;-46
2023/12/28 05:58:05;;;;;;;;;;;;;;;20.27;39.72;100744.63;5023073;28;19926;-48
2023/12/28 06:00:30;;;;;;;;;;;;;;;20.26;39.43;100753.72;5045832;28;19918;-49
2023/12/28 06:02:55;;;;;;;;;;;;;;;20.24;39.62;100759.31;5066644;28;19925;-47
2023/12/28 06:05:20;;;;;;;;;;;;;;;20.23;39.41;100746.84;5007434;28;20006;-48
2023/12/28 06:07:46;;;;;;;;;;;;;;;20.25;39.38;100738.53;5004722;28;20262;-45
2023/12/28 06:10:11;;;;;;;;;;;;;;;20.25;39.41;100754.75;5036643;28;19922;-46
2023/12/28 06:12:36;;;;;;;;;;;;;;;20.23;39.35;100746.84;5043835;28;19918;-48
2023/12/28 06:15:02;;;;;;;;;;;;;;;20.23;39.43;100744.97;5032861;28;19914;-49
2023/12/28 06:17:27;;;;;;;;;;;;;;;20.23;39.60;100749.53;5022976;28;19913;-50
2023/12/28 06:19:52;;;;;;;;;;;;;;;20.23;39.92;100744.97;5006381;28;19933;-46
2023/12/28 06:22:17;;;;;;;;;;;;;;;20.23;39.54;100755.78;5011286;28;19921;-48
2023/12/28 06:24:43;;;;;;;;;;;;;;;20.25;39.46;100752.88;5022211;28;19917;-50
2023/12/28 06:27:08;;;;;;;;;;;;;;;20.26;39.77;100756.41;5010644;28;19913;-45
2023/12/28 06:29:33;;;;;;;;;;;;;;;20.27;39.46;100769.75;5024378;28;20363;-45
2023/12/28 06:31:58;;;;;;;;;;;;;;;20.29;39.64;100770.41;5043899;28;19921;-46
2023/12/28 06:34:23;;;;;;;;;;;;;;;20.31;39.76;100762.13;5018803;28;19914;-45
2023/12/28 06:36:49;;;;;;;;;;;;;;;20.30;39.91;100761.25;5014509;28;19913;-44
2023/12/28 06:39:14;;;;;;;;;;;;;;;20.33;40.07;100777.09;5012864;28;19914;-46
2023/12/28 06:41:39;;;;;;;;;;;;;;;20.36;39.95;100779.47;5031540;28;19920;-46
2023/12/28 06:44:04;;;;;;;;;;;;;;;20.38;40.18;100771.16;5017733;28;19913;-45
2023/12/28 06:46:29;;;;;;;;;;;;;;;20.40;39.93;100766.44;5029495;28;19912;-44
2023/12/28 06:48:55;;;;;;;;;;;;;;;20.40;39.79;100761.03;5018838;28;20342;-47
2023/12/28 06:51:20;;;;;;;;;;;;;;;20.43;40.09;100761.50;5001863;28;19924;-45
2023/12/28 06:53:46;;;;;;;;;;;;;;;20.44;40.10;100760.50;5016591;28;19932;-45
2023/12/28 06:56:11;;;;;;;;;;;;;;;20.47;40.25;100764.66;5030037;28;19926;-44
2023/12/28 06:58:36;;;;;;;;;;;;;;;20.47;40.01;100768.22;5081517;28;20028;-46
2023/12/28 07:01:04;;;;;;;;;;;;;;;20.51;40.29;100773.28;5015217;28;20860;-45
2023/12/28 07:03:33;;;;;;;;;;;;;;;20.53;40.30;100749.66;5012282;28;20402;-45
2023/12/28 07:05:58;;;;;;;;;;;;;;;20.55;40.27;100753.81;5004419;28;20435;-45
2023/12/28 07:08:23;;;;;;;;;;;;;;;20.58;39.95;100763.44;5011312;28;19914;-47
2023/12/28 07:10:49;;;;;;;;;;;;;;;20.60;40.22;100767.66;4998972;28;19921;-44
2023/12/28 07:13:14;;;;;;;;;;;;;;;20.63;39.85;100761.00;5007183;28;19917;-46
2023/12/28 07:15:39;;;;;;;;;;;;;;;20.65;39.80;100759.00;5004100;28;19928;-44
2023/12/28 07:18:04;;;;;;;;;;;;;;;20.68;40.16;100780.22;5018167;28;19921;-45
2023/12/28 07:20:29;;;;;;;;;;;;;;;20.71;39.77;100785.25;5019109;28;19962;-44
2023/12/28 07:22:54;;;;;;;;;;;;;;;20.75;39.64;100777.63;5005343;28;19914;-45
2023/12/28 07:25:20;;;;;;;;;;;;;;;20.76;39.98;100788.25;5020903;28;20006;-45
2023/12/28 07:27:45;;;;;;;;;;;;;;;20.79;39.67;100785.19;5011892;28;20362;-44
2023/12/28 07:30:10;;;;;;;;;;;;;;;20.82;39.82;100794.78;5001100;28;20273;-44
2023/12/28 07:32:35;;;;;;;;;;;;;;;20.85;39.77;100792.53;5012261;28;19920;-45
2023/12/28 07:35:01;;;;;;;;;;;;;;;20.87;39.88;100801.31;5034031;28;20373;-46
2023/12/28 07:37:26;;;;;;;;;;;;;;;20.88;39.70;100797.56;5020976;28;19918;-44
2023/12/28 07:39:51;;;;;;;;;;;;;;;20.90;39.50;100819.03;5025499;28;19923;-45
2023/12/28 07:42:17;;;;;;;;;;;;;;;20.91;39.42;100816.13;5027996;28;19918;-44
2023/12/28 07:44:42;;;;;;;;;;;;;;;20.91;39.67;100829.66;5019679;28;20012;-49
2023/12/28 07:47:07;;;;;;;;;;;;;;;20.93;39.35;100826.75;5012927;28;19913;-49
2023/12/28 07:49:32;;;;;;;;;;;;;;;20.94;39.68;100850.91;5018484;28;19914;-46
2023/12/28 07:51:58;;;;;;;;;;;;;;;20.96;39.60;100842.63;5010038;28;19913;-46
2023/12/28 07:54:23;;;;;;;;;;;;;;;20.97;39.71;100830.78;5018722;28;19924;-49
2023/12/28 07:56:48;;;;;;;;;;;;;;;20.99;39.38;100839.56;5019590;28;20384;-47
2023/12/28 07:59:13;;;;;;;;;;;;;;;21.01;39.89;100842.06;5009461;28;19922;-48
2023/12/28 08:01:39;;;;;;;;;;;;;;;21.03;39.53;100835.47;5003649;28;19928;-44
2023/12/28 08:04:04;;;;;;;;;;;;;;;21.05;39.48;100846.91;5008395;28;19914;-47
2023/12/28 08:06:32;;;;;;;;;;;;;;;21.05;39.42;100855.03;5010134;28;20687;-50
2023/12/28 08:08:59;;;;;;;;;;;;;;;21.09;39.82;100864.44;5015466;28;19974;-48
2023/12/28 08:11:24;;;;;;;;;;;;;;;21.11;39.69;100850.72;5035478;28;19913;-46
2023/12/28 08:13:49;;;;;;;;;;;;;;;21.12;39.43;100869.50;5002798;28;19961;-46
2023/12/28 08:16:14;;;;;;;;;;;;;;;21.14;39.52;100848.50;5012464;28;19994;-45
2023/12/28 08:18:39;;;;;;;;;;;;;;;21.15;39.32;100858.31;5006847;28;19925;-48
2023/12/28 08:21:04;;;;;;;;;;;;;;;21.17;39.06;100871.63;5024240;28;19924;-49
2023/12/28 08:23:30;;;;;;;;;;;;;;;21.18;39.05;100862.50;5018607;28;20641;-49
2023/12/28 08:25:55;;;;;;;;;;;;;;;21.19;39.28;100848.78;5017832;28;19929;-51
2023/12/28 08:28:20;;;;;;;;;;;;;;;21.20;39.17;100850.47;5020169;28;19914;-48
2023/12/28 08:30:45;;;;;;;;;;;;;;;21.23;38.96;100868.19;5011519;28;19914;-48
2023/12/28 08:33:10;;;;;;;;;;;;;;;21.23;39.04;100855.50;5004496;28;20079;-47
2023/12/28 08:35:36;;;;;;;;;;;;;;;21.26;39.00;100832.66;5013869;28;19928;-47
2023/12/28 08:38:01;;;;;;;;;;;;;;;21.27;38.70;100830.81;5021378;28;20396;-46
2023/12/28 08:40:26;;;;;;;;;;;;;;;21.27;38.71;100825.38;5021171;28;19936;-47
2023/12/28 08:42:51;;;;;;;;;;;;;;;21.30;38.66;100823.16;5027361;28;19917;-50
2023/12/28 08:45:16;;;;;;;;;;;;;;;21.31;38.94;100830.22;5025358;28;19914;-51
2023/12/28 08:47:42;;;;;;;;;;;;;;;21.33;38.65;100836.34;5011768;28;19917;-49
2023/12/28 08:50:07;;;;;;;;;;;;;;;21.35;38.49;100836.97;5029210;28;19916;-49
2023/12/28 08:52:32;;;;;;;;;;;;;;;21.37;38.77;100842.22;5032685;28;19922;-47
2023/12/28 08:54:58;;;;;;;;;;;;;;;21.37;38.71;100843.06;5011580;28;20516;-49
2023/12/28 08:57:23;;;;;;;;;;;;;;;21.39;38.65;100843.69;5073088;28;19918;-45
2023/12/28 08:59:48;;;;;;;;;;;;;;;21.41;38.73;100852.47;5018791;28;19917;-50
2023/12/28 09:02:14;;;;;;;;;;;;;;;21.41;38.52;100879.53;5007755;28;19913;-47
2023/12/28 09:04:39;;;;;;;;;;;;;;;21.42;38.61;100874.97;5055512;28;19936;-46
2023/12/28 09:07:04;;;;;;;;;;;;;;;21.44;38.33;100876.44;5020390;28;19918;-46
2023/12/28 09:09:30;;;;;;;;;;;;;;;21.45;38.26;100877.28;5010695;28;19918;-46
2023/12/28 09:11:55;;;;;;;;;;;;;;;21.46;38.60;100862.75;5014494;28;19913;-47
2023/12/28 09:14:20;;;;;;;;;;;;;;;21.46;38.37;100900.63;5025669;28;19925;-45
2023/12/28 09:16:46;;;;;;;;;;;;;;;21.46;38.48;100892.50;5036934;28;19924;-44
2023/12/28 09:19:11;;;;;;;;;;;;;;;21.47;38.50;100888.75;5043535;28;20287;-45
2023/12/28 09:21:38;;;;;;;;;;;;;;;21.48;38.65;100901.25;5043356;28;19912;-45
2023/12/28 09:24:03;;;;;;;;;;;;;;;21.50;38.29;100903.78;5018035;28;19925;-48
2023/12/28 09:26:28;;;;;;;;;;;;;;;21.49;38.49;100892.09;5014730;28;19914;-47
2023/12/28 09:28:54;;;;;;;;;;;;;;;21.51;38.57;100889.22;5016939;28;20017;-46
2023/12/28 09:31:20;;;;;;;;;;;;;;;21.52;38.76;100874.66;5086943;28;19924;-45
2023/12/28 09:33:45;;;;;;;;;;;;;;;21.52;38.63;100886.31;5020384;28;19926;-47
2023/12/28 09:36:12;;;;;;;;;;;;;;;21.54;38.56;100894.28;5021061;28;19917;-44
2023/12/28 09:38:38;;;;;;;;;;;;;;;21.53;38.45;100882.59;5077069;28;19918;-50
2023/12/28 09:41:09;;;;;;;;;;;;;;;21.54;38.34;100895.13;5019883;28;20234;-44
2023/12/28 09:43:37;;;;;;;;;;;;;;;21.54;38.44;100896.97;5063880;28;19918;-47
2023/12/28 09:46:07;;;;;;;;;;;;;;;21.53;38.64;100890.69;5061507;28;19918;-46
2023/12/28 09:48:32;;;;;;;;;;;;;;;21.54;38.40;100896.97;5005651;28;19917;-44
2023/12/28 09:50:57;;;;;;;;;;;;;;;21.54;38.70;100895.13;5062879;28;19918;-50
2023/12/28 09:53:26;;;;;;;;;;;;;;;21.55;38.72;100901.34;5028078;28;19979;-47
2023/12/28 09:55:54;;;;;;;;;;;;;;;21.56;38.61;100903.03;5010429;28;19914;-48
2023/12/28 09:58:19;;;;;;;;;;;;;;;21.55;38.68;100910.31;5006841;28;19926;-47
2023/12/28 10:00:45;;;;;;;;;;;;;;;21.54;38.58;100907.81;5086148;28;19912;-48
2023/12/28 10:03:12;;;;;;;;;;;;;;;21.54;38.53;100911.34;5065916;28;19913;-50
2023/12/28 10:05:37;;;;;;;;;;;;;;;21.54;38.50;100924.03;5017973;28;19913;-49
2023/12/28 10:08:02;;;;;;;;;;;;;;;21.53;38.92;100920.47;5036422;28;19925;-48
2023/12/28 10:10:28;;;;;;;;;;;;;;;21.53;38.44;100920.47;5014191;28;19921;-48
2023/12/28 10:12:53;;;;;;;;;;;;;;;21.52;38.43;100924.19;5014622;28;19920;-51
2023/12/28 10:15:19;;;;;;;;;;;;;;;20.50;38.91;100756.25;5031042;28;19924;-49
2023/12/28 10:17:45;;;;;;;;;;;;;;;21.50;38.67;100915.44;5082283;28;19984;-47
2023/12/28 10:20:10;;;;;;;;;;;;;;;21.50;38.52;100931.69;5020400;28;19923;-48
2023/12/28 10:22:36;;;;;;;;;;;;;;;21.49;38.77;100935.38;5022563;28;20279;-49
2023/12/28 10:25:02;;;;;;;;;;;;;;;21.48;38.73;100925.59;5039825;28;19914;-48
2023/12/28 10:27:28;;;;;;;;;;;;;;;21.48;38.73;100933.72;5066678;28;19918;-48
2023/12/28 10:29:54;;;;;;;;;;;;;;;21.49;38.58;100937.25;5022219;28;19912;-48
2023/12/28 10:32:19;;;;;;;;;;;;;;;21.48;38.61;100936.41;5028600;28;19981;-49
2023/12/28 10:34:45;;;;;;;;;;;;;;;21.48;38.46;100919.34;5024476;28;19913;-51
2023/12/28 10:37:11;;;;;;;;;;;;;;;21.48;38.84;100922.88;5018133;28;19912;-47
2023/12/28 10:39:36;;;;;;;;;;;;;;;21.50;38.69;100925.44;5029801;28;19913;-50
2023/12/28 10:42:03;;;;;;;;;;;;;;;21.50;38.69;100926.28;5037503;28;19949;-47
2023/12/28 10:44:28;;;;;;;;;;;;;;;21.51;38.64;100933.34;5047913;28;19914;-45
2023/12/28 10:46:55;;;;;;;;;;;;;;;21.52;38.34;100935.03;5066867;28;19936;-48
2023/12/28 10:49:21;;;;;;;;;;;;;;;21.54;38.67;100934.84;5065387;28;19918;-50
2023/12/28 10:51:46;;;;;;;;;;;;;;;21.54;38.53;100934.84;5012990;28;19935;-49
2023/12/28 10:54:28;;;;;;;;;;;;;;;21.55;38.80;100939.22;5068297;28;19916;-50
2023/12/28 10:56:56;;;;;;;;;;;;;;;21.55;38.57;100945.47;5067855;28;19918;-50
2023/12/28 10:59:27;;;;;;;;;;;;;;;21.56;38.98;100936.34;5017719;28;20003;-50
2023/12/28 11:01:54;;;;;;;;;;;;;;;21.58;38.66;100934.31;5060246;28;20513;-48
2023/12/28 11:04:19;;;;;;;;;;;;;;;21.60;38.86;100932.22;5070510;28;19923;-50
2023/12/28 11:06:44;;;;;;;;;;;;;;;21.60;38.96;100929.53;5068137;28;19921;-44
2023/12/28 11:09:10;;;;;;;;;;;;;;;21.63;38.67;100931.88;5062056;28;19924;-46
2023/12/28 11:11:35;;;;;;;;;;;;;;;21.64;38.86;100927.28;5025047;28;19925;-47
2023/12/28 11:14:00;;;;;;;;;;;;;;;21.68;38.83;100917.78;5024672;28;19944;-49
2023/12/28 11:16:25;;;;;;;;;;;;;;;21.69;39.05;100919.44;5056144;28;20009;-50
2023/12/28 11:18:50;;;;;;;;;;;;;;;21.71;38.99;100912.84;5068376;28;20311;-51
2023/12/28 11:21:16;;;;;;;;;;;;;;;21.74;38.92;100910.78;5067159;28;19975;-46
2023/12/28 11:23:42;;;;;;;;;;;;;;;21.76;38.70;100908.72;5005856;28;19920;-46
2023/12/28 11:26:17;;;;;;;;;;;;;;;21.79;39.09;100921.88;5025340;28;19922;-48
2023/12/28 11:28:43;;;;;;;;;;;;;;;21.83;38.80;100909.63;5010578;28;19925;-46
2023/12/28 11:31:13;;;;;;;;;;;;;;;21.85;38.60;100910.31;5017305;28;19921;-50
2023/12/28 11:33:44;;;;;;;;;;;;;;;21.88;38.74;100908.06;5022057;28;19917;-50
2023/12/28 11:36:09;;;;;;;;;;;;;;;21.90;38.57;100906.00;5006217;28;19967;-47
2023/12/28 11:38:34;;;;;;;;;;;;;;;21.91;38.65;100901.41;5012233;28;19922;-52
2023/12/28 11:41:03;;;;;;;;;;;;;;;21.95;38.82;100900.84;5062655;28;19918;-50
2023/12/28 11:43:33;;;;;;;;;;;;;;;21.98;38.64;100904.22;5072053;28;19980;-53
2023/12/28 11:45:58;;;;;;;;;;;;;;;22.00;38.44;100903.00;5019226;28;19912;-52
2023/12/28 11:48:25;;;;;;;;;;;;;;;22.00;38.67;100896.75;5077994;28;20094;-50
2023/12/28 11:50:50;;;;;;;;;;;;;;;22.01;38.79;100903.84;5083278;28;19924;-52
2023/12/28 11:53:16;;;;;;;;;;;;;;;22.03;38.55;100908.03;5071798;28;19993;-52
2023/12/28 11:55:41;;;;;;;;;;;;;;;22.05;38.76;100900.56;5025681;28;19985;-49
2023/12/28 11:58:06;;;;;;;;;;;;;;;22.08;38.57;100912.88;5071191;28;19921;-49
2023/12/28 12:00:32;;;;;;;;;;;;;;;22.09;38.44;100914.56;5033735;28;19914;-50
2023/12/28 12:02:57;;;;;;;;;;;;;;;22.10;38.51;100913.53;5023163;28;20392;-51
2023/12/28 12:05:22;;;;;;;;;;;;;;;22.10;38.47;100897.31;5035335;28;19922;-52
2023/12/28 12:07:48;;;;;;;;;;;;;;;22.14;38.49;100909.47;5004922;28;19945;-50
2023/12/28 12:10:17;;;;;;;;;;;;;;;22.17;38.53;100896.38;5024542;28;19985;-53
2023/12/28 12:12:42;;;;;;;;;;;;;;;22.20;38.38;100897.84;5024791;28;19957;-53
2023/12/28 12:15:08;;;;;;;;;;;;;;;22.19;38.66;100897.03;5068332;28;19917;-45
2023/12/28 12:17:33;;;;;;;;;;;;;;;22.23;38.32;100899.34;5028124;28;20408;-48
2023/12/28 12:19:58;;;;;;;;;;;;;;;22.25;38.63;100892.69;5057201;28;19923;-50
2023/12/28 12:22:23;;;;;;;;;;;;;;;22.30;38.17;100895.69;5019570;28;20347;-49
2023/12/28 12:24:48;;;;;;;;;;;;;;;22.35;38.37;100889.69;5043756;28;20004;-50
2023/12/28 12:27:14;;;;;;;;;;;;;;;22.42;38.00;100898.72;5027047;28;20013;-48